createdAt,value
2023-04-27T00:00:06.445Z,100466.83
2023-04-27T00:02:39.806Z,100467.94
2023-04-27T00:05:11.982Z,100462.73
2023-04-27T00:07:42.720Z,100461.47
2023-04-27T00:10:13.703Z,100460.77
2023-04-27T00:12:44.140Z,100457.43
2023-04-27T00:15:14.873Z,100455.96
2023-04-27T00:17:45.454Z,100456.23
2023-04-27T00:20:15.934Z,100458.07
2023-04-27T00:22:46.371Z,100454.42
2023-04-27T00:25:16.839Z,100452.46
2023-04-27T00:27:47.233Z,100450.02
2023-04-27T00:30:17.913Z,100448.06
2023-04-27T00:32:48.500Z,100451.79
2023-04-27T00:35:20.283Z,100452.09
2023-04-27T00:37:50.829Z,100454.96
2023-04-27T00:40:22.868Z,100459.02
2023-04-27T00:42:53.353Z,100457.44
2023-04-27T00:45:24.030Z,100458.75
2023-04-27T00:47:54.734Z,100457.14
2023-04-27T00:50:30.760Z,100458.23
2023-04-27T00:53:01.757Z,100459.86
2023-04-27T00:55:32.257Z,100462.17
2023-04-27T00:58:02.759Z,100464.37
2023-04-27T01:00:33.312Z,100461.84
2023-04-27T01:03:05.257Z,100454.04
2023-04-27T01:05:37.392Z,100454.91
2023-04-27T01:08:08.141Z,100459.34
2023-04-27T01:10:39.121Z,100452.86
2023-04-27T01:13:10.811Z,100457.58
2023-04-27T01:15:42.070Z,100460.27
2023-04-27T01:18:13.931Z,100462.44
2023-04-27T01:20:45.226Z,100461.94
2023-04-27T01:23:17.737Z,100465.02
2023-04-27T01:25:48.302Z,100462.14
2023-04-27T01:28:18.788Z,100462.70
2023-04-27T01:30:49.286Z,100462.36
2023-04-27T01:33:19.776Z,100460.12
2023-04-27T01:35:50.392Z,100463.52
2023-04-27T01:38:21.442Z,100463.63
2023-04-27T01:40:51.939Z,100465.35
2023-04-27T01:43:24.612Z,100467.73
2023-04-27T01:45:55.134Z,100470.42
2023-04-27T01:48:25.712Z,100469.89
2023-04-27T01:50:56.349Z,100471.73
2023-04-27T01:53:26.835Z,100469.69
2023-04-27T01:55:57.765Z,100469.73
2023-04-27T01:58:28.882Z,100471.81
2023-04-27T02:00:59.402Z,100473.41
2023-04-27T02:03:29.998Z,100477.04
2023-04-27T02:06:01.054Z,100474.36
2023-04-27T02:08:31.530Z,100477.19
2023-04-27T02:11:01.996Z,100478.20
2023-04-27T02:13:32.441Z,100473.52
2023-04-27T02:16:05.242Z,100471.14
2023-04-27T02:18:36.224Z,100472.52
2023-04-27T02:21:11.796Z,100475.56
2023-04-27T02:23:42.549Z,100472.88
2023-04-27T02:26:19.563Z,100474.11
2023-04-27T02:28:50.354Z,100474.79
2023-04-27T02:31:21.258Z,100477.26
2023-04-27T02:33:51.791Z,100478.83
2023-04-27T02:36:22.457Z,100480.23
2023-04-27T02:38:52.920Z,100479.98
2023-04-27T02:41:23.392Z,100485.50
2023-04-27T02:43:54.104Z,100484.56
2023-04-27T02:46:24.656Z,100485.55
2023-04-27T02:48:57.696Z,100484.34
2023-04-27T02:51:28.216Z,100483.99
2023-04-27T02:53:58.688Z,100485.98
2023-04-27T02:56:29.295Z,100484.33
2023-04-27T02:58:59.753Z,100486.63
2023-04-27T03:01:30.596Z,100490.66
2023-04-27T03:04:01.338Z,100490.77
2023-04-27T03:06:31.996Z,100490.19
2023-04-27T03:09:03.757Z,100489.30
2023-04-27T03:11:35.323Z,100493.73
2023-04-27T03:14:08.306Z,100490.64
2023-04-27T03:16:38.808Z,100491.98
2023-04-27T03:19:09.276Z,100488.34
2023-04-27T03:21:39.777Z,100489.27
2023-04-27T03:24:10.826Z,100490.55
2023-04-27T03:26:41.354Z,100488.39
2023-04-27T03:29:11.927Z,100489.52
2023-04-27T03:31:42.667Z,100492.20
2023-04-27T03:34:13.187Z,100495.73
2023-04-27T03:36:43.841Z,100495.03
2023-04-27T03:39:14.531Z,100498.61
2023-04-27T03:41:45.349Z,100500.48
2023-04-27T03:44:16.067Z,100506.19
2023-04-27T03:46:46.546Z,100509.15
2023-04-27T03:49:17.080Z,100509.17
2023-04-27T03:51:47.530Z,100510.84
2023-04-27T03:54:18.730Z,100514.57
2023-04-27T03:56:49.870Z,100512.80
2023-04-27T03:59:20.710Z,100515.83
2023-04-27T04:01:53.532Z,100518.55
2023-04-27T04:04:24.397Z,100521.07
2023-04-27T04:06:55.047Z,100522.69
2023-04-27T04:09:26.212Z,100522.11
2023-04-27T04:11:57.912Z,100524.48
2023-04-27T04:14:30.034Z,100525.69
2023-04-27T04:17:00.809Z,100527.41
2023-04-27T04:19:31.312Z,100531.42
2023-04-27T04:22:01.876Z,100534.73
2023-04-27T04:24:32.594Z,100540.13
2023-04-27T04:27:04.745Z,100541.35
2023-04-27T04:29:35.219Z,100546.88
2023-04-27T04:32:07.448Z,100550.61
2023-04-27T04:34:36.398Z,100550.23
2023-04-27T04:37:07.118Z,100554.74
2023-04-27T04:39:37.642Z,100554.98
2023-04-27T04:42:08.401Z,100555.95
2023-04-27T04:44:39.019Z,100562.20
2023-04-27T04:47:10.197Z,100562.85
2023-04-27T04:49:40.703Z,100566.77
2023-04-27T04:52:11.633Z,100568.18
2023-04-27T04:54:42.086Z,100570.41
2023-04-27T04:57:12.693Z,100570.29
2023-04-27T04:59:43.443Z,100570.84
2023-04-27T05:02:15.478Z,100574.64
2023-04-27T05:04:46.386Z,100575.31
2023-04-27T05:07:20.918Z,100576.83
2023-04-27T05:09:53.974Z,100578.02
2023-04-27T05:12:24.511Z,100583.15
2023-04-27T05:14:55.384Z,100586.30
2023-04-27T05:17:25.918Z,100584.80
2023-04-27T05:19:56.468Z,100590.03
2023-04-27T05:22:26.936Z,100589.05
2023-04-27T05:24:57.541Z,100590.67
2023-04-27T05:27:28.080Z,100591.29
2023-04-27T05:29:58.520Z,100589.86
2023-04-27T05:32:29.056Z,100589.92
2023-04-27T05:34:59.509Z,100593.87
2023-04-27T05:37:29.976Z,100593.31
2023-04-27T05:40:00.506Z,100594.55
2023-04-27T05:42:31.021Z,100593.72
2023-04-27T05:45:01.594Z,100597.30
2023-04-27T05:47:32.363Z,100600.05
2023-04-27T05:50:03.762Z,100605.16
2023-04-27T05:52:35.352Z,100605.63
2023-04-27T05:55:09.190Z,100609.13
2023-04-27T05:57:38.172Z,100611.83
2023-04-27T06:00:12.686Z,100612.11
2023-04-27T06:02:43.561Z,100618.71
2023-04-27T06:05:14.398Z,100621.46
2023-04-27T06:07:44.946Z,100618.84
2023-04-27T06:10:16.494Z,100621.98
2023-04-27T06:12:47.153Z,100620.25
2023-04-27T06:15:17.924Z,100617.51
2023-04-27T06:17:48.395Z,100621.89
2023-04-27T06:20:19.076Z,100619.60
2023-04-27T06:22:49.580Z,100622.48
2023-04-27T06:25:20.065Z,100622.27
2023-04-27T06:27:50.638Z,100621.05
2023-04-27T06:30:21.207Z,100622.95
2023-04-27T06:32:53.248Z,100625.42
2023-04-27T06:35:24.385Z,100620.27
2023-04-27T06:37:58.824Z,100622.77
2023-04-27T06:40:29.517Z,100625.56
2023-04-27T06:43:00.260Z,100628.30
2023-04-27T06:45:30.854Z,100632.08
2023-04-27T06:48:01.544Z,100626.71
2023-04-27T06:50:32.064Z,100625.84
2023-04-27T06:53:02.611Z,100618.04
2023-04-27T06:55:33.227Z,100616.77
2023-04-27T06:58:04.468Z,100615.38
2023-04-27T07:00:35.184Z,100611.92
2023-04-27T07:03:05.707Z,100608.46
2023-04-27T07:05:37.688Z,100614.27
2023-04-27T07:08:09.176Z,100611.20
2023-04-27T07:10:39.972Z,100609.98
2023-04-27T07:13:11.307Z,100608.56
2023-04-27T07:15:43.154Z,100606.79
2023-04-27T07:18:13.831Z,100607.63
2023-04-27T07:20:44.830Z,100613.86
2023-04-27T07:23:15.295Z,100614.70
2023-04-27T07:25:46.528Z,100615.73
2023-04-27T07:28:17.043Z,100617.80
2023-04-27T07:30:47.923Z,100613.16
2023-04-27T07:33:18.766Z,100614.66
2023-04-27T07:35:50.371Z,100615.13
2023-04-27T07:38:20.964Z,100613.65
2023-04-27T07:40:51.423Z,100613.45
2023-04-27T07:43:23.135Z,100612.40
2023-04-27T07:45:54.543Z,100613.95
2023-04-27T07:48:25.579Z,100612.25
2023-04-27T07:50:57.277Z,100615.19
2023-04-27T07:53:27.803Z,100614.34
2023-04-27T07:55:58.264Z,100618.10
2023-04-27T07:58:28.770Z,100616.80
2023-04-27T08:00:59.263Z,100618.04
2023-04-27T08:03:29.994Z,100619.96
2023-04-27T08:06:01.073Z,100621.10
2023-04-27T08:08:32.978Z,100622.80
2023-04-27T08:11:03.473Z,100622.54
2023-04-27T08:13:36.323Z,100622.61
2023-04-27T08:16:07.630Z,100622.98
2023-04-27T08:18:38.144Z,100625.83
2023-04-27T08:21:08.702Z,100623.09
2023-04-27T08:23:39.144Z,100626.81
2023-04-27T08:26:09.673Z,100625.20
2023-04-27T08:28:40.134Z,100625.81
2023-04-27T08:31:10.604Z,100628.48
2023-04-27T08:33:41.705Z,100623.48
2023-04-27T08:36:12.497Z,100621.89
2023-04-27T08:38:42.972Z,100625.70
2023-04-27T08:41:21.848Z,100625.92
2023-04-27T08:43:53.907Z,100629.10
2023-04-27T08:46:27.190Z,100626.95
2023-04-27T08:48:58.099Z,100633.65
2023-04-27T08:51:29.154Z,100636.20
2023-04-27T08:54:00.465Z,100637.55
2023-04-27T08:56:32.776Z,100631.27
2023-04-27T08:59:04.533Z,100631.56
2023-04-27T09:01:36.495Z,100634.98
2023-04-27T09:04:07.736Z,100630.41
2023-04-27T09:06:38.481Z,100625.90
2023-04-27T09:09:08.972Z,100630.41
2023-04-27T09:11:40.810Z,100632.00
2023-04-27T09:14:22.122Z,100627.94
2023-04-27T09:16:59.317Z,100626.13
2023-04-27T09:19:31.620Z,100626.91
2023-04-27T09:22:10.896Z,100624.61
2023-04-27T09:24:50.986Z,100619.04
2023-04-27T09:27:23.516Z,100617.36
2023-04-27T09:29:54.040Z,100615.22
2023-04-27T09:32:24.653Z,100616.00
2023-04-27T09:34:55.101Z,100610.29
2023-04-27T09:37:27.093Z,100605.53
2023-04-27T09:39:57.625Z,100613.30
2023-04-27T09:42:28.158Z,100615.86
2023-04-27T09:44:59.406Z,100613.63
2023-04-27T09:47:30.193Z,100616.02
2023-04-27T09:50:02.821Z,100615.25
2023-04-27T09:52:34.793Z,100612.80
2023-04-27T09:55:09.375Z,100611.69
2023-04-27T09:57:46.796Z,100612.42
2023-04-27T10:00:27.545Z,100613.65
2023-04-27T10:03:16.910Z,100612.05
2023-04-27T10:06:14.501Z,100616.02
2023-04-27T10:08:45.552Z,100615.03
2023-04-27T10:11:19.462Z,100615.47
2023-04-27T10:13:56.665Z,100618.98
2023-04-27T10:16:27.336Z,100618.89
2023-04-27T10:18:58.303Z,100618.92
2023-04-27T10:21:30.733Z,100620.35
2023-04-27T10:24:09.721Z,100617.79
2023-04-27T10:26:49.173Z,100617.26
2023-04-27T10:29:20.564Z,100619.45
2023-04-27T10:31:51.199Z,100615.67
2023-04-27T10:34:22.189Z,100613.02
2023-04-27T10:37:05.701Z,100609.53
2023-04-27T10:39:48.752Z,100607.91
2023-04-27T10:42:30.571Z,100605.23
2023-04-27T10:45:01.305Z,100612.48
2023-04-27T10:47:41.121Z,100606.85
2023-04-27T10:50:14.464Z,100605.73
2023-04-27T10:52:47.176Z,100607.64
2023-04-27T10:55:20.261Z,100611.42
2023-04-27T10:57:53.296Z,100612.30
2023-04-27T11:00:28.515Z,100615.96
2023-04-27T11:03:10.651Z,100615.14
2023-04-27T11:05:41.361Z,100622.52
2023-04-27T11:08:14.118Z,100621.85
2023-04-27T11:10:50.024Z,100619.30
2023-04-27T11:13:22.389Z,100625.65
2023-04-27T11:15:52.041Z,100627.17
2023-04-27T11:18:24.737Z,100625.02
2023-04-27T11:21:06.765Z,100629.11
2023-04-27T11:23:38.623Z,100634.77
2023-04-27T11:26:16.938Z,100635.64
2023-04-27T11:29:00.056Z,100635.02
2023-04-27T11:31:40.265Z,100635.73
2023-04-27T11:34:11.278Z,100638.49
2023-04-27T11:36:41.744Z,100645.02
2023-04-27T11:39:21.874Z,100643.95
2023-04-27T11:41:52.644Z,100640.70
2023-04-27T11:44:28.565Z,100642.77
2023-04-27T11:47:02.329Z,100645.84
2023-04-27T11:49:33.063Z,100655.58
2023-04-27T11:52:03.675Z,100655.00
2023-04-27T11:54:34.189Z,100646.91
2023-04-27T11:57:09.137Z,100643.93
2023-04-27T11:59:39.584Z,100643.23
2023-04-27T12:02:10.213Z,100640.66
2023-04-27T12:04:41.063Z,100640.02
2023-04-27T12:07:12.401Z,100640.08
2023-04-27T12:09:43.438Z,100641.89
2023-04-27T12:12:17.083Z,100642.65
2023-04-27T12:14:47.656Z,100640.12
2023-04-27T12:17:18.240Z,100641.67
2023-04-27T12:19:49.041Z,100640.52
2023-04-27T12:22:19.506Z,100640.77
2023-04-27T12:24:49.966Z,100638.61
2023-04-27T12:27:20.448Z,100638.16
2023-04-27T12:29:50.955Z,100636.37
2023-04-27T12:32:21.695Z,100631.85
2023-04-27T12:34:52.456Z,100628.17
2023-04-27T12:37:25.478Z,100624.11
2023-04-27T12:39:57.253Z,100625.77
2023-04-27T12:42:27.717Z,100622.44
2023-04-27T12:44:58.161Z,100621.50
2023-04-27T12:47:49.738Z,100622.16
2023-04-27T12:50:19.522Z,100626.75
2023-04-27T12:52:50.421Z,100623.77
2023-04-27T12:55:32.021Z,100629.32
2023-04-27T12:58:04.745Z,100636.06
2023-04-27T13:00:35.532Z,100630.74
2023-04-27T13:03:07.082Z,100631.08
2023-04-27T13:05:37.833Z,100634.34
2023-04-27T13:08:08.404Z,100632.08
2023-04-27T13:10:38.985Z,100627.61
2023-04-27T13:13:09.667Z,100630.36
2023-04-27T13:15:40.423Z,100637.95
2023-04-27T13:18:10.884Z,100625.81
2023-04-27T13:20:41.375Z,100620.59
2023-04-27T13:23:11.985Z,100632.20
2023-04-27T13:25:42.511Z,100625.98
2023-04-27T13:28:12.971Z,100615.33
2023-04-27T13:30:43.517Z,100622.58
2023-04-27T13:33:22.736Z,100627.91
2023-04-27T13:35:54.321Z,100626.67
2023-04-27T13:38:24.758Z,100633.00
2023-04-27T13:40:56.192Z,100645.45
2023-04-27T13:43:27.236Z,100643.82
2023-04-27T13:46:00.764Z,100643.69
2023-04-27T13:48:32.675Z,100639.95
2023-04-27T13:51:03.256Z,100644.79
2023-04-27T13:53:33.717Z,100649.96
2023-04-27T13:56:04.184Z,100644.52
2023-04-27T13:58:34.752Z,100649.40
2023-04-27T14:01:05.490Z,100649.46
2023-04-27T14:03:36.123Z,100652.64
2023-04-27T14:06:07.504Z,100649.48
2023-04-27T14:08:37.983Z,100649.20
2023-04-27T14:11:08.487Z,100644.15
2023-04-27T14:13:39.035Z,100638.08
2023-04-27T14:16:10.784Z,100639.91
2023-04-27T14:18:41.292Z,100641.94
2023-04-27T14:21:11.714Z,100639.50
2023-04-27T14:23:42.249Z,100640.25
2023-04-27T14:26:12.688Z,100642.74
2023-04-27T14:28:43.144Z,100639.55
2023-04-27T14:31:14.452Z,100635.85
2023-04-27T14:33:44.910Z,100635.89
2023-04-27T14:36:15.656Z,100641.81
2023-04-27T14:38:46.353Z,100636.73
2023-04-27T14:41:16.820Z,100637.61
2023-04-27T14:43:49.058Z,100644.36
2023-04-27T14:46:21.604Z,100640.48
2023-04-27T14:48:52.432Z,100643.27
2023-04-27T14:51:23.092Z,100642.45
2023-04-27T14:53:53.725Z,100638.36
2023-04-27T14:56:24.623Z,100633.15
2023-04-27T14:58:55.606Z,100630.67
2023-04-27T15:01:26.218Z,100631.46
2023-04-27T15:03:58.196Z,100634.81
2023-04-27T15:06:30.359Z,100635.89
2023-04-27T15:08:59.316Z,100634.05
2023-04-27T15:11:29.857Z,100634.73
2023-04-27T15:14:00.620Z,100635.61
2023-04-27T15:16:31.497Z,100633.70
2023-04-27T15:19:02.048Z,100635.23
2023-04-27T15:21:33.092Z,100637.42
2023-04-27T15:24:03.520Z,100638.59
2023-04-27T15:26:34.000Z,100641.69
2023-04-27T15:29:05.140Z,100637.06
2023-04-27T15:31:35.715Z,100637.15
2023-04-27T15:34:06.305Z,100644.61
2023-04-27T15:36:36.748Z,100637.98
2023-04-27T15:39:09.956Z,100638.23
2023-04-27T15:41:41.661Z,100641.19
2023-04-27T15:44:12.273Z,100641.38
2023-04-27T15:46:42.805Z,100641.92
2023-04-27T15:49:13.559Z,100641.23
2023-04-27T15:51:44.378Z,100637.59
2023-04-27T15:54:14.868Z,100640.52
2023-04-27T15:56:45.330Z,100636.21
2023-04-27T15:59:16.157Z,100640.31
2023-04-27T16:01:47.042Z,100637.71
2023-04-27T16:04:17.618Z,100635.13
2023-04-27T16:06:48.140Z,100634.61
2023-04-27T16:09:19.091Z,100639.77
2023-04-27T16:11:49.595Z,100639.09
2023-04-27T16:14:20.028Z,100636.16
2023-04-27T16:16:51.416Z,100634.43
2023-04-27T16:19:22.716Z,100633.57
2023-04-27T16:21:53.564Z,100634.77
2023-04-27T16:24:24.024Z,100634.57
2023-04-27T16:26:54.492Z,100634.55
2023-04-27T16:29:24.936Z,100631.27
2023-04-27T16:31:56.148Z,100633.13
2023-04-27T16:34:26.973Z,100632.77
2023-04-27T16:36:57.402Z,100634.98
2023-04-27T16:39:27.956Z,100632.05
2023-04-27T16:41:58.398Z,100630.59
2023-04-27T16:44:28.885Z,100633.45
2023-04-27T16:46:59.393Z,100631.89
2023-04-27T16:49:29.881Z,100629.66
2023-04-27T16:52:00.323Z,100630.17
2023-04-27T16:54:30.833Z,100631.02
2023-04-27T16:57:01.950Z,100631.52
2023-04-27T16:59:33.160Z,100635.45
2023-04-27T17:02:16.475Z,100638.70
2023-04-27T17:04:54.139Z,100641.41
2023-04-27T17:07:25.598Z,100640.71
2023-04-27T17:09:56.171Z,100641.55
2023-04-27T17:12:26.717Z,100643.25
2023-04-27T17:14:57.151Z,100644.63
2023-04-27T17:17:27.953Z,100647.02
2023-04-27T17:19:58.478Z,100645.44
2023-04-27T17:22:30.116Z,100644.21
2023-04-27T17:25:00.590Z,100642.84
2023-04-27T17:27:31.181Z,100642.34
2023-04-27T17:30:01.917Z,100637.88
2023-04-27T17:32:32.562Z,100637.85
2023-04-27T17:35:03.466Z,100633.38
2023-04-27T17:37:33.991Z,100633.41
2023-04-27T17:40:06.107Z,100635.80
2023-04-27T17:42:36.950Z,100633.91
2023-04-27T17:45:09.321Z,100633.56
2023-04-27T17:47:39.751Z,100632.34
2023-04-27T17:50:12.031Z,100637.63
2023-04-27T17:52:42.791Z,100639.11
2023-04-27T17:55:13.340Z,100635.80
2023-04-27T17:57:43.801Z,100635.55
2023-04-27T18:00:18.113Z,100634.63
2023-04-27T18:02:49.721Z,100635.44
2023-04-27T18:05:20.489Z,100643.81
2023-04-27T18:07:51.529Z,100643.27
2023-04-27T18:10:22.017Z,100644.80
2023-04-27T18:12:52.525Z,100646.48
2023-04-27T18:15:23.085Z,100648.48
2023-04-27T18:17:53.642Z,100650.64
2023-04-27T18:20:25.619Z,100653.53
2023-04-27T18:22:56.641Z,100652.98
2023-04-27T18:25:27.066Z,100652.92
2023-04-27T18:27:57.540Z,100664.20
2023-04-27T18:30:28.675Z,100665.69
2023-04-27T18:32:59.288Z,100665.98
2023-04-27T18:35:29.948Z,100671.25
2023-04-27T18:38:00.397Z,100670.88
2023-04-27T18:40:30.910Z,100673.75
2023-04-27T18:43:01.387Z,100674.91
2023-04-27T18:45:32.075Z,100675.40
2023-04-27T18:48:02.725Z,100679.33
2023-04-27T18:50:33.279Z,100676.57
2023-04-27T18:53:03.817Z,100680.98
2023-04-27T18:55:34.247Z,100686.08
2023-04-27T18:58:04.747Z,100684.84
2023-04-27T19:00:35.279Z,100687.73
2023-04-27T19:03:06.362Z,100690.63
2023-04-27T19:05:37.540Z,100693.52
2023-04-27T19:08:08.117Z,100691.63
2023-04-27T19:10:41.240Z,100690.45
2023-04-27T19:13:11.869Z,100690.44
2023-04-27T19:15:42.331Z,100693.35
2023-04-27T19:18:12.920Z,100692.48
2023-04-27T19:20:43.659Z,100696.59
2023-04-27T19:23:14.208Z,100695.21
2023-04-27T19:25:45.171Z,100697.95
2023-04-27T19:28:16.648Z,100701.17
2023-04-27T19:30:47.300Z,100704.96
2023-04-27T19:33:20.453Z,100709.25
2023-04-27T19:35:52.470Z,100709.08
2023-04-27T19:38:22.507Z,100709.75
2023-04-27T19:40:53.002Z,100709.20
2023-04-27T19:43:23.741Z,100706.78
2023-04-27T19:45:54.203Z,100705.23
2023-04-27T19:48:26.275Z,100708.02
2023-04-27T19:50:55.806Z,100706.69
2023-04-27T19:53:26.334Z,100706.67
2023-04-27T19:55:58.857Z,100710.48
2023-04-27T19:58:30.667Z,100713.08
2023-04-27T20:01:01.106Z,100713.19
2023-04-27T20:03:31.876Z,100712.30
2023-04-27T20:06:02.936Z,100716.55
2023-04-27T20:08:34.355Z,100714.98
2023-04-27T20:11:04.793Z,100713.06
2023-04-27T20:13:35.228Z,100708.05
2023-04-27T20:16:06.696Z,100708.73
2023-04-27T20:18:38.060Z,100712.83
2023-04-27T20:21:08.642Z,100711.11
2023-04-27T20:23:39.702Z,100710.23
2023-04-27T20:26:10.149Z,100713.48
2023-04-27T20:28:40.651Z,100713.29
2023-04-27T20:31:11.123Z,100710.69
2023-04-27T20:33:41.602Z,100713.38
2023-04-27T20:36:17.087Z,100711.77
2023-04-27T20:38:48.889Z,100714.66
2023-04-27T20:41:19.317Z,100714.80
2023-04-27T20:43:52.548Z,100712.55
2023-04-27T20:46:23.078Z,100710.62
2023-04-27T20:48:53.492Z,100711.78
2023-04-27T20:51:24.004Z,100712.41
2023-04-27T20:53:54.503Z,100713.55
2023-04-27T20:56:26.002Z,100715.56
2023-04-27T20:58:56.971Z,100718.27
2023-04-27T21:01:27.699Z,100714.30
2023-04-27T21:03:58.261Z,100714.95
2023-04-27T21:06:28.781Z,100709.56
2023-04-27T21:09:00.319Z,100705.93
2023-04-27T21:11:30.978Z,100705.38
2023-04-27T21:14:01.464Z,100700.86
2023-04-27T21:16:32.004Z,100696.02
2023-04-27T21:19:02.453Z,100696.48
2023-04-27T21:21:32.870Z,100696.23
2023-04-27T21:24:07.930Z,100696.02
2023-04-27T21:26:39.152Z,100699.36
2023-04-27T21:29:09.706Z,100702.21
2023-04-27T21:31:40.219Z,100700.80
2023-04-27T21:34:10.777Z,100699.21
2023-04-27T21:36:41.198Z,100700.73
2023-04-27T21:39:11.982Z,100698.99
2023-04-27T21:41:42.491Z,100705.83
2023-04-27T21:44:13.005Z,100701.67
2023-04-27T21:46:43.744Z,100699.55
2023-04-27T21:49:14.339Z,100699.30
2023-04-27T21:51:44.834Z,100705.42
2023-04-27T21:54:15.387Z,100706.42
2023-04-27T21:56:46.238Z,100708.61
2023-04-27T21:59:16.762Z,100708.56
2023-04-27T22:01:47.232Z,100707.52
2023-04-27T22:04:18.188Z,100707.33
2023-04-27T22:06:49.027Z,100709.02
2023-04-27T22:09:19.588Z,100707.45
2023-04-27T22:11:50.122Z,100708.96
2023-04-27T22:14:21.027Z,100704.47
2023-04-27T22:16:51.470Z,100704.98
2023-04-27T22:19:21.937Z,100710.96
2023-04-27T22:21:52.394Z,100705.29
2023-04-27T22:24:22.952Z,100710.25
2023-04-27T22:26:53.484Z,100707.45
2023-04-27T22:29:23.934Z,100706.40
2023-04-27T22:31:54.442Z,100703.63
2023-04-27T22:34:25.004Z,100702.05
2023-04-27T22:36:55.558Z,100708.17
2023-04-27T22:39:27.095Z,100703.87
2023-04-27T22:41:57.897Z,100707.44
2023-04-27T22:44:28.457Z,100704.01
2023-04-27T22:47:00.802Z,100703.65
2023-04-27T22:49:31.944Z,100701.38
2023-04-27T22:52:02.357Z,100702.54
2023-04-27T22:54:32.877Z,100701.66
2023-04-27T22:57:04.541Z,100703.52
2023-04-27T22:59:35.003Z,100704.19
2023-04-27T23:02:06.183Z,100701.07
2023-04-27T23:04:36.706Z,100700.04
2023-04-27T23:07:07.174Z,100702.23
2023-04-27T23:09:37.758Z,100697.04
2023-04-27T23:12:09.044Z,100691.90
2023-04-27T23:14:40.078Z,100693.95
2023-04-27T23:17:11.788Z,100694.47
2023-04-27T23:19:42.223Z,100688.10
2023-04-27T23:22:12.717Z,100685.02
2023-04-27T23:24:43.217Z,100685.70
2023-04-27T23:27:13.710Z,100687.91
2023-04-27T23:29:44.137Z,100688.89
2023-04-27T23:32:14.615Z,100688.68
2023-04-27T23:34:45.149Z,100691.39
2023-04-27T23:37:15.614Z,100688.79
2023-04-27T23:39:46.420Z,100690.10
2023-04-27T23:42:16.893Z,100683.92
2023-04-27T23:44:47.396Z,100686.49
2023-04-27T23:47:17.853Z,100687.17
2023-04-27T23:49:48.370Z,100694.70
2023-04-27T23:52:18.834Z,100692.80
2023-04-27T23:54:49.281Z,100694.50
2023-04-27T23:57:19.720Z,100695.88
2023-04-27T23:59:50.153Z,100694.16
